createdAt,value
2022-12-29T00:02:25.764Z,5.10
2022-12-29T00:04:55.184Z,4.73
2022-12-29T00:07:23.239Z,5.27
2022-12-29T00:09:52.324Z,5.00
2022-12-29T00:12:20.294Z,5.13
2022-12-29T00:15:05.641Z,4.33
2022-12-29T00:17:33.646Z,4.63
2022-12-29T00:20:20.349Z,5.07
2022-12-29T00:23:05.749Z,4.70
2022-12-29T00:25:51.201Z,5.33
2022-12-29T00:28:36.884Z,4.93
2022-12-29T00:31:24.044Z,4.40
2022-12-29T00:34:09.371Z,5.03
2022-12-29T00:36:41.696Z,5.10
2022-12-29T00:39:28.758Z,5.27
2022-12-29T00:42:14.337Z,4.97
2022-12-29T00:44:42.302Z,5.10
2022-12-29T00:47:10.278Z,5.30
2022-12-29T00:49:37.269Z,5.00
2022-12-29T00:52:08.246Z,5.53
2022-12-29T00:54:36.860Z,5.50
2022-12-29T00:57:05.357Z,4.97
2022-12-29T00:59:33.418Z,4.80
2022-12-29T01:02:02.232Z,5.43
2022-12-29T01:04:30.368Z,5.70
2022-12-29T01:06:58.339Z,5.73
2022-12-29T01:09:45.367Z,5.07
2022-12-29T01:12:13.770Z,6.13
2022-12-29T01:14:42.265Z,5.77
2022-12-29T01:17:10.249Z,5.70
2022-12-29T01:19:38.321Z,5.87
2022-12-29T01:22:06.262Z,5.63
2022-12-29T01:24:36.662Z,5.53
2022-12-29T01:27:04.637Z,5.73
2022-12-29T01:29:32.550Z,5.67
2022-12-29T01:32:00.617Z,6.03
2022-12-29T01:34:28.606Z,5.83
2022-12-29T01:36:56.587Z,6.10
2022-12-29T01:39:24.745Z,6.03
2022-12-29T01:41:54.172Z,6.20
2022-12-29T01:44:40.632Z,6.43
2022-12-29T01:47:10.101Z,6.17
2022-12-29T01:49:38.102Z,6.23
2022-12-29T01:52:07.715Z,6.00
2022-12-29T01:54:38.797Z,6.10
2022-12-29T01:57:10.771Z,5.87
2022-12-29T01:59:40.896Z,6.60
2022-12-29T02:02:09.408Z,6.23
2022-12-29T02:04:39.856Z,6.07
2022-12-29T02:07:11.208Z,6.57
2022-12-29T02:09:39.546Z,6.00
2022-12-29T02:12:09.604Z,6.37
2022-12-29T02:14:37.636Z,7.47
2022-12-29T02:17:12.566Z,6.73
2022-12-29T02:19:55.290Z,6.90
2022-12-29T02:22:29.869Z,6.53
2022-12-29T02:25:15.529Z,6.50
2022-12-29T02:28:07.126Z,6.93
2022-12-29T02:30:42.500Z,6.97
2022-12-29T02:33:14.686Z,6.97
2022-12-29T02:35:46.732Z,6.67
2022-12-29T02:38:20.795Z,6.50
2022-12-29T02:40:51.166Z,7.07
2022-12-29T02:43:25.380Z,7.43
2022-12-29T02:45:57.189Z,7.10
2022-12-29T02:48:27.219Z,5.83
2022-12-29T02:51:00.134Z,6.70
2022-12-29T02:53:42.685Z,6.30
2022-12-29T02:56:10.718Z,6.13
2022-12-29T02:58:38.682Z,6.13
2022-12-29T03:01:14.300Z,5.97
2022-12-29T03:03:49.533Z,5.73
2022-12-29T03:06:29.734Z,6.07
2022-12-29T03:09:01.787Z,5.37
2022-12-29T03:11:52.783Z,6.67
2022-12-29T03:14:46.491Z,5.77
2022-12-29T03:17:21.199Z,5.40
2022-12-29T03:19:51.370Z,5.90
2022-12-29T03:22:31.996Z,5.50
2022-12-29T03:25:01.556Z,5.47
2022-12-29T03:27:31.269Z,6.13
2022-12-29T03:30:01.110Z,5.13
2022-12-29T03:32:33.623Z,5.23
2022-12-29T03:35:02.068Z,4.97
2022-12-29T03:37:32.888Z,5.33
2022-12-29T03:40:00.972Z,5.03
2022-12-29T03:42:30.615Z,5.13
2022-12-29T03:44:58.679Z,4.77
2022-12-29T03:47:27.099Z,4.73
2022-12-29T03:49:56.466Z,4.80
2022-12-29T03:52:24.707Z,4.97
2022-12-29T03:54:52.857Z,5.20
2022-12-29T03:57:20.785Z,4.87
2022-12-29T03:59:48.734Z,4.40
2022-12-29T04:02:16.908Z,5.30
2022-12-29T04:04:46.511Z,4.53
2022-12-29T04:07:15.920Z,4.53
2022-12-29T04:09:43.900Z,3.73
2022-12-29T04:12:11.937Z,4.70
2022-12-29T04:14:39.874Z,4.37
2022-12-29T04:17:07.893Z,4.13
2022-12-29T04:19:35.923Z,5.03
2022-12-29T04:22:03.948Z,5.50
2022-12-29T04:24:33.301Z,4.70
2022-12-29T04:27:01.672Z,4.13
2022-12-29T04:29:29.611Z,4.67
2022-12-29T04:31:57.709Z,3.57
2022-12-29T04:34:25.649Z,3.83
2022-12-29T04:36:53.679Z,3.80
2022-12-29T04:39:21.785Z,4.40
2022-12-29T04:41:51.134Z,4.70
2022-12-29T04:44:19.088Z,3.43
2022-12-29T04:46:47.086Z,3.63
2022-12-29T04:49:15.097Z,3.63
2022-12-29T04:51:43.050Z,3.73
2022-12-29T04:54:11.002Z,3.57
2022-12-29T04:56:38.929Z,3.40
2022-12-29T04:59:08.299Z,3.70
2022-12-29T05:01:36.412Z,3.90
2022-12-29T05:04:04.511Z,3.57
2022-12-29T05:06:32.547Z,3.87
2022-12-29T05:09:00.507Z,3.57
2022-12-29T05:11:28.488Z,3.50
2022-12-29T05:13:56.502Z,3.30
2022-12-29T05:16:25.965Z,3.70
2022-12-29T05:18:54.209Z,2.83
2022-12-29T05:21:22.227Z,3.27
2022-12-29T05:23:50.229Z,3.30
2022-12-29T05:26:18.260Z,3.07
2022-12-29T05:28:46.678Z,3.37
2022-12-29T05:31:14.737Z,2.90
2022-12-29T05:33:44.218Z,3.30
2022-12-29T05:36:12.488Z,3.03
2022-12-29T05:38:40.417Z,2.93
2022-12-29T05:41:08.420Z,3.23
2022-12-29T05:43:36.370Z,3.10
2022-12-29T05:46:05.060Z,2.90
2022-12-29T05:48:37.646Z,3.27
2022-12-29T05:51:07.785Z,3.13
2022-12-29T05:53:35.822Z,3.27
2022-12-29T05:56:03.860Z,3.07
2022-12-29T05:58:32.803Z,2.70
2022-12-29T06:01:00.974Z,3.53
2022-12-29T06:03:29.048Z,3.03
2022-12-29T06:05:57.420Z,2.90
2022-12-29T06:08:26.900Z,3.23
2022-12-29T06:10:54.970Z,3.10
2022-12-29T06:13:23.100Z,2.57
2022-12-29T06:15:51.220Z,2.90
2022-12-29T06:18:20.320Z,2.67
2022-12-29T06:20:48.526Z,2.80
2022-12-29T06:23:17.610Z,3.27
2022-12-29T06:25:47.160Z,3.33
2022-12-29T06:28:15.230Z,3.00
2022-12-29T06:30:45.450Z,3.10
2022-12-29T06:33:13.817Z,2.73
2022-12-29T06:35:42.572Z,3.07
2022-12-29T06:38:10.577Z,2.70
2022-12-29T06:40:38.633Z,2.90
2022-12-29T06:43:08.568Z,2.73
2022-12-29T06:45:36.616Z,3.00
2022-12-29T06:48:04.618Z,2.63
2022-12-29T06:50:32.617Z,3.30
2022-12-29T06:53:00.613Z,3.70
2022-12-29T06:55:29.337Z,2.60
2022-12-29T06:57:57.547Z,2.47
2022-12-29T07:00:27.285Z,2.97
2022-12-29T07:02:56.892Z,3.57
2022-12-29T07:05:26.063Z,2.60
2022-12-29T07:07:54.159Z,2.23
2022-12-29T07:10:23.863Z,2.50
2022-12-29T07:12:51.992Z,2.80
2022-12-29T07:15:20.087Z,2.57
2022-12-29T07:17:50.631Z,3.40
2022-12-29T07:20:24.719Z,2.97
2022-12-29T07:22:54.582Z,3.10
2022-12-29T07:25:22.617Z,3.03
2022-12-29T07:27:50.902Z,2.90
2022-12-29T07:30:18.995Z,2.90
2022-12-29T07:32:46.980Z,3.00
2022-12-29T07:35:16.401Z,2.70
2022-12-29T07:37:45.546Z,3.17
2022-12-29T07:40:14.002Z,2.90
2022-12-29T07:42:42.124Z,3.00
2022-12-29T07:45:11.260Z,3.07
2022-12-29T07:47:39.200Z,2.63
2022-12-29T07:50:07.782Z,3.00
2022-12-29T07:52:37.215Z,2.97
2022-12-29T07:55:05.353Z,2.90
2022-12-29T07:57:33.318Z,3.00
2022-12-29T08:00:01.327Z,2.77
2022-12-29T08:02:29.923Z,2.90
2022-12-29T08:04:57.924Z,2.67
2022-12-29T08:07:25.919Z,2.60
2022-12-29T08:09:55.547Z,2.80
2022-12-29T08:12:23.517Z,3.03
2022-12-29T08:14:52.070Z,2.83
2022-12-29T08:17:20.051Z,3.10
2022-12-29T08:19:48.044Z,2.90
2022-12-29T08:22:16.185Z,2.50
2022-12-29T08:24:44.281Z,2.53
2022-12-29T08:27:20.346Z,3.10
2022-12-29T08:29:49.128Z,2.87
2022-12-29T08:32:17.115Z,2.40
2022-12-29T08:34:45.174Z,2.80
2022-12-29T08:37:13.253Z,2.50
2022-12-29T08:39:41.341Z,2.60
2022-12-29T08:42:09.277Z,2.77
2022-12-29T08:44:38.702Z,2.40
2022-12-29T08:47:07.299Z,2.97
2022-12-29T08:49:35.503Z,2.50
2022-12-29T08:52:03.506Z,2.63
2022-12-29T08:54:31.510Z,2.87
2022-12-29T08:56:59.489Z,2.50
2022-12-29T08:59:27.525Z,2.70
2022-12-29T09:01:56.943Z,2.33
2022-12-29T09:04:25.822Z,2.50
2022-12-29T09:06:53.918Z,2.73
2022-12-29T09:09:22.339Z,2.90
2022-12-29T09:11:50.348Z,3.10
2022-12-29T09:14:18.309Z,2.30
2022-12-29T09:17:03.708Z,2.57
2022-12-29T09:19:33.127Z,2.37
2022-12-29T09:22:01.157Z,3.00
2022-12-29T09:24:29.113Z,2.57
2022-12-29T09:26:57.110Z,3.10
2022-12-29T09:29:25.114Z,2.80
2022-12-29T09:31:54.496Z,2.50
2022-12-29T09:34:22.791Z,3.30
2022-12-29T09:36:52.270Z,2.40
2022-12-29T09:39:20.287Z,2.73
2022-12-29T09:41:51.090Z,2.50
2022-12-29T09:44:23.151Z,2.37
2022-12-29T09:46:53.246Z,2.63
2022-12-29T09:49:26.743Z,2.30
2022-12-29T09:51:57.080Z,2.60
2022-12-29T09:54:41.057Z,2.20
2022-12-29T09:57:14.445Z,2.30
2022-12-29T09:59:44.051Z,2.50
2022-12-29T10:02:17.414Z,3.00
2022-12-29T10:04:45.641Z,2.90
2022-12-29T10:07:29.487Z,2.67
2022-12-29T10:10:03.890Z,2.53
2022-12-29T10:12:39.376Z,3.10
2022-12-29T10:15:13.847Z,2.47
2022-12-29T10:17:46.759Z,2.40
2022-12-29T10:20:21.970Z,2.27
2022-12-29T10:22:59.190Z,2.90
2022-12-29T10:25:31.257Z,2.30
2022-12-29T10:28:03.696Z,2.67
2022-12-29T10:30:31.824Z,3.00
2022-12-29T10:33:00.964Z,2.67
2022-12-29T10:35:32.343Z,3.00
2022-12-29T10:38:04.623Z,2.60
2022-12-29T10:40:35.457Z,2.80
2022-12-29T10:43:07.467Z,2.70
2022-12-29T10:45:35.832Z,2.67
2022-12-29T10:48:05.572Z,2.50
2022-12-29T10:50:34.031Z,2.30
2022-12-29T10:53:05.045Z,2.50
2022-12-29T10:55:34.929Z,2.20
2022-12-29T10:58:05.941Z,3.00
2022-12-29T11:00:35.613Z,3.00
2022-12-29T11:03:14.602Z,3.20
2022-12-29T11:05:44.437Z,2.50
2022-12-29T11:08:14.903Z,2.40
2022-12-29T11:10:43.897Z,3.10
2022-12-29T11:13:17.436Z,2.60
2022-12-29T11:15:46.063Z,2.80
2022-12-29T11:18:24.521Z,2.53
2022-12-29T11:20:53.495Z,2.77
2022-12-29T11:23:27.607Z,2.60
2022-12-29T11:26:08.984Z,2.90
2022-12-29T11:28:37.132Z,3.57
2022-12-29T11:31:06.006Z,3.07
2022-12-29T11:33:34.623Z,3.27
2022-12-29T11:36:04.751Z,2.60
2022-12-29T11:38:36.209Z,2.80
2022-12-29T11:41:04.774Z,2.60
2022-12-29T11:43:34.657Z,2.73
2022-12-29T11:46:04.742Z,3.10
2022-12-29T11:48:35.410Z,2.77
2022-12-29T11:51:03.391Z,2.33
2022-12-29T11:53:40.181Z,3.13
2022-12-29T11:56:10.787Z,3.27
2022-12-29T11:58:39.180Z,2.30
2022-12-29T12:01:08.537Z,3.10
2022-12-29T12:03:38.836Z,2.87
2022-12-29T12:06:08.619Z,3.00
2022-12-29T12:08:39.720Z,2.43
2022-12-29T12:11:11.879Z,15.73
2022-12-29T12:13:42.301Z,3.03
2022-12-29T12:16:11.659Z,2.97
2022-12-29T12:18:42.895Z,2.37
2022-12-29T12:21:15.306Z,2.77
2022-12-29T12:24:00.885Z,3.17
2022-12-29T12:26:32.492Z,2.90
2022-12-29T12:29:02.144Z,2.37
2022-12-29T12:31:35.959Z,2.60
2022-12-29T12:34:07.442Z,2.57
2022-12-29T12:36:47.806Z,2.70
2022-12-29T12:39:24.778Z,2.37
2022-12-29T12:41:57.790Z,2.80
2022-12-29T12:44:30.979Z,2.60
2022-12-29T12:47:07.683Z,4.93
2022-12-29T12:49:48.274Z,2.23
2022-12-29T12:52:21.861Z,2.63
2022-12-29T12:55:03.243Z,2.60
2022-12-29T12:57:37.194Z,2.43
2022-12-29T13:00:07.825Z,2.57
2022-12-29T13:02:39.796Z,2.80
2022-12-29T13:05:18.958Z,2.80
2022-12-29T13:07:53.172Z,2.13
2022-12-29T13:10:25.632Z,2.47
2022-12-29T13:12:56.485Z,2.30
2022-12-29T13:15:31.430Z,3.50
2022-12-29T13:18:02.176Z,2.53
2022-12-29T13:20:34.087Z,2.33
2022-12-29T13:23:04.779Z,2.57
2022-12-29T13:25:39.345Z,2.40
2022-12-29T13:28:09.691Z,2.43
2022-12-29T13:30:41.793Z,2.97
2022-12-29T13:33:21.100Z,2.70
2022-12-29T13:35:54.846Z,2.77
2022-12-29T13:38:24.964Z,2.70
2022-12-29T13:40:57.029Z,2.57
2022-12-29T13:43:25.942Z,2.87
2022-12-29T13:46:00.133Z,2.43
2022-12-29T13:48:32.271Z,2.30
2022-12-29T13:51:03.400Z,2.70
2022-12-29T13:53:36.047Z,2.20
2022-12-29T13:56:08.523Z,2.80
2022-12-29T13:58:39.127Z,2.67
2022-12-29T14:01:12.815Z,2.30
2022-12-29T14:03:49.487Z,3.43
2022-12-29T14:06:21.119Z,2.77
2022-12-29T14:08:50.125Z,3.20
2022-12-29T14:11:20.358Z,2.60
2022-12-29T14:13:49.594Z,2.97
2022-12-29T14:16:32.148Z,2.80
2022-12-29T14:19:07.220Z,2.60
2022-12-29T14:21:36.281Z,3.30
2022-12-29T14:24:19.425Z,2.70
2022-12-29T14:26:48.983Z,2.60
2022-12-29T14:29:35.550Z,2.93
2022-12-29T14:32:03.577Z,2.83
2022-12-29T14:34:32.678Z,2.60
2022-12-29T14:37:01.903Z,2.50
2022-12-29T14:39:33.156Z,2.77
2022-12-29T14:42:06.621Z,2.33
2022-12-29T14:44:35.371Z,2.60
2022-12-29T14:47:07.579Z,2.70
2022-12-29T14:49:41.385Z,2.53
2022-12-29T14:52:14.960Z,2.60
2022-12-29T14:54:45.253Z,11.83
2022-12-29T14:57:20.950Z,9.37
2022-12-29T14:59:49.721Z,3.30
2022-12-29T15:02:19.728Z,3.40
2022-12-29T15:04:49.218Z,3.07
2022-12-29T15:07:20.148Z,3.17
2022-12-29T15:09:50.756Z,3.00
2022-12-29T15:12:24.916Z,3.37
2022-12-29T15:14:54.293Z,2.70
2022-12-29T15:17:27.076Z,2.83
2022-12-29T15:19:55.392Z,2.73
2022-12-29T15:22:23.527Z,2.60
2022-12-29T15:24:52.883Z,2.93
2022-12-29T15:27:23.762Z,2.80
2022-12-29T15:29:58.259Z,3.33
2022-12-29T15:32:27.364Z,2.77
2022-12-29T15:34:56.333Z,3.10
2022-12-29T15:37:25.355Z,3.17
2022-12-29T15:39:53.888Z,3.47
2022-12-29T15:42:29.308Z,2.80
2022-12-29T15:45:09.293Z,2.83
2022-12-29T15:47:38.777Z,2.93
2022-12-29T15:50:11.512Z,2.37
2022-12-29T15:52:41.703Z,2.17
2022-12-29T15:55:20.412Z,2.00
2022-12-29T15:57:49.866Z,2.00
2022-12-29T16:00:25.789Z,1.90
2022-12-29T16:02:54.348Z,1.70
2022-12-29T16:05:22.584Z,1.33
2022-12-29T16:07:54.912Z,1.90
2022-12-29T16:10:31.519Z,1.57
2022-12-29T16:13:06.001Z,1.73
2022-12-29T16:15:34.141Z,1.37
2022-12-29T16:18:02.189Z,2.23
2022-12-29T16:20:36.757Z,1.60
2022-12-29T16:23:04.956Z,1.37
2022-12-29T16:25:35.796Z,1.77
2022-12-29T16:28:04.553Z,1.57
2022-12-29T16:30:35.664Z,1.37
2022-12-29T16:33:04.577Z,1.67
2022-12-29T16:35:41.364Z,1.20
2022-12-29T16:38:10.280Z,1.43
2022-12-29T16:40:42.221Z,1.70
2022-12-29T16:43:22.210Z,1.10
2022-12-29T16:46:08.415Z,1.60
2022-12-29T16:48:38.804Z,1.50
2022-12-29T16:51:07.708Z,1.80
2022-12-29T16:53:37.983Z,1.60
2022-12-29T16:56:09.573Z,2.10
2022-12-29T16:58:37.632Z,1.90
2022-12-29T17:01:07.099Z,1.50
2022-12-29T17:03:36.519Z,1.43
2022-12-29T17:06:06.303Z,1.53
2022-12-29T17:08:41.542Z,1.27
2022-12-29T17:11:39.973Z,1.20
2022-12-29T17:14:13.283Z,1.27
2022-12-29T17:16:41.270Z,1.73
2022-12-29T17:19:09.941Z,1.20
2022-12-29T17:21:39.313Z,1.83
2022-12-29T17:24:13.942Z,1.27
2022-12-29T17:26:41.875Z,1.23
2022-12-29T17:29:12.436Z,1.17
2022-12-29T17:31:40.468Z,0.97
2022-12-29T17:34:10.056Z,1.23
2022-12-29T17:36:39.470Z,1.07
2022-12-29T17:39:07.765Z,1.07
2022-12-29T17:41:37.347Z,1.03
2022-12-29T17:44:05.612Z,0.80
2022-12-29T17:46:33.704Z,1.17
2022-12-29T17:49:01.877Z,1.53
2022-12-29T17:51:29.845Z,1.70
2022-12-29T17:53:59.235Z,2.17
2022-12-29T17:56:27.245Z,1.60
2022-12-29T17:58:56.177Z,2.00
2022-12-29T18:01:31.055Z,2.00
2022-12-29T18:04:02.164Z,1.80
2022-12-29T18:06:30.194Z,2.00
2022-12-29T18:08:59.585Z,2.00
2022-12-29T18:11:28.229Z,2.77
2022-12-29T18:13:57.101Z,1.90
2022-12-29T18:16:25.393Z,2.30
2022-12-29T18:18:53.413Z,2.40
2022-12-29T18:21:22.320Z,3.70
2022-12-29T18:23:50.497Z,3.13
2022-12-29T18:26:25.628Z,3.30
2022-12-29T18:28:55.619Z,2.30
2022-12-29T18:31:25.356Z,2.37
2022-12-29T18:33:54.491Z,2.80
2022-12-29T18:36:23.299Z,2.47
2022-12-29T18:38:53.395Z,2.27
2022-12-29T18:41:24.090Z,2.33
2022-12-29T18:43:52.667Z,2.43
2022-12-29T18:46:23.572Z,2.30
2022-12-29T18:48:52.034Z,2.37
2022-12-29T18:51:20.825Z,2.77
2022-12-29T18:53:49.184Z,3.50
2022-12-29T18:56:17.117Z,3.57
2022-12-29T18:58:46.598Z,3.40
2022-12-29T19:01:19.757Z,2.90
2022-12-29T19:03:47.817Z,2.80
2022-12-29T19:06:15.790Z,3.10
2022-12-29T19:08:43.804Z,3.47
2022-12-29T19:11:11.788Z,3.43
2022-12-29T19:13:40.585Z,3.13
2022-12-29T19:16:10.514Z,3.30
2022-12-29T19:18:44.203Z,2.60
2022-12-29T19:21:13.601Z,2.70
2022-12-29T19:23:41.616Z,3.20
2022-12-29T19:26:18.926Z,3.10
2022-12-29T19:28:46.844Z,2.57
2022-12-29T19:31:16.300Z,2.20
2022-12-29T19:33:44.315Z,2.47
2022-12-29T19:36:12.321Z,2.73
2022-12-29T19:38:40.239Z,2.20
2022-12-29T19:41:08.890Z,2.57
2022-12-29T19:43:36.833Z,2.53
2022-12-29T19:46:08.347Z,2.93
2022-12-29T19:48:37.796Z,2.90
2022-12-29T19:51:06.400Z,3.17
2022-12-29T19:53:34.753Z,2.87
2022-12-29T19:56:04.096Z,3.40
2022-12-29T19:58:32.293Z,2.70
2022-12-29T20:01:05.424Z,2.83
2022-12-29T20:03:33.521Z,2.73
2022-12-29T20:06:02.921Z,2.30
2022-12-29T20:08:31.029Z,2.73
2022-12-29T20:11:00.378Z,2.67
2022-12-29T20:13:28.699Z,2.70
2022-12-29T20:16:00.676Z,3.03
2022-12-29T20:18:29.613Z,2.67
2022-12-29T20:21:03.720Z,2.70
2022-12-29T20:23:31.704Z,2.70
2022-12-29T20:26:00.196Z,2.73
2022-12-29T20:28:28.855Z,2.83
2022-12-29T20:30:57.788Z,2.60
2022-12-29T20:33:25.858Z,3.10
2022-12-29T20:35:53.885Z,2.27
2022-12-29T20:38:23.309Z,2.80
2022-12-29T20:40:51.284Z,2.43
2022-12-29T20:43:19.379Z,2.93
2022-12-29T20:45:47.397Z,2.23
2022-12-29T20:48:15.402Z,2.77
2022-12-29T20:50:43.413Z,3.07
2022-12-29T20:53:11.823Z,2.63
2022-12-29T20:55:41.541Z,2.20
2022-12-29T20:58:25.424Z,1.90
2022-12-29T21:00:54.111Z,2.07
2022-12-29T21:03:22.218Z,2.43
2022-12-29T21:05:50.188Z,2.60
2022-12-29T21:08:18.105Z,1.90
2022-12-29T21:10:48.821Z,2.53
2022-12-29T21:13:16.830Z,2.67
2022-12-29T21:15:45.108Z,2.60
2022-12-29T21:18:13.787Z,2.77
2022-12-29T21:20:41.788Z,2.80
2022-12-29T21:23:10.841Z,3.03
2022-12-29T21:25:44.322Z,2.93
2022-12-29T21:28:13.717Z,2.83
2022-12-29T21:30:42.710Z,2.87
2022-12-29T21:33:10.895Z,4.93
2022-12-29T21:35:38.981Z,3.40
2022-12-29T21:38:06.913Z,3.17
2022-12-29T21:40:35.168Z,3.60
2022-12-29T21:43:03.134Z,3.43
2022-12-29T21:45:34.222Z,3.63
2022-12-29T21:48:20.037Z,3.50
2022-12-29T21:51:06.145Z,3.00
2022-12-29T21:53:40.817Z,3.17
2022-12-29T21:56:09.491Z,2.63
2022-12-29T21:58:55.196Z,3.33
2022-12-29T22:01:42.479Z,3.20
2022-12-29T22:04:29.809Z,3.00
2022-12-29T22:07:15.343Z,2.83
2022-12-29T22:10:00.889Z,2.90
2022-12-29T22:12:48.014Z,3.63
2022-12-29T22:15:15.978Z,3.50
2022-12-29T22:17:48.853Z,3.77
2022-12-29T22:20:17.703Z,3.43
2022-12-29T22:22:45.751Z,3.33
2022-12-29T22:25:13.752Z,3.87
2022-12-29T22:27:41.773Z,3.40
2022-12-29T22:30:09.962Z,3.60
2022-12-29T22:32:37.979Z,3.20
2022-12-29T22:35:08.595Z,4.03
2022-12-29T22:37:37.174Z,4.07
2022-12-29T22:40:05.314Z,4.37
2022-12-29T22:42:33.325Z,4.10
2022-12-29T22:45:01.283Z,12.53
2022-12-29T22:47:29.348Z,7.07
2022-12-29T22:49:57.404Z,6.60
2022-12-29T22:52:26.860Z,4.90
2022-12-29T22:54:55.075Z,4.63
2022-12-29T22:57:23.064Z,4.50
2022-12-29T22:59:51.073Z,4.30
2022-12-29T23:02:19.147Z,5.63
2022-12-29T23:05:02.867Z,4.87
2022-12-29T23:07:34.300Z,4.93
2022-12-29T23:10:02.348Z,4.03
2022-12-29T23:12:30.914Z,4.73
2022-12-29T23:14:58.954Z,4.70
2022-12-29T23:17:26.925Z,4.40
2022-12-29T23:19:54.910Z,4.77
2022-12-29T23:22:23.445Z,4.37
2022-12-29T23:24:52.831Z,4.30
2022-12-29T23:27:20.821Z,4.57
2022-12-29T23:29:48.839Z,5.13
2022-12-29T23:32:16.780Z,5.40
2022-12-29T23:34:44.706Z,6.10
2022-12-29T23:37:13.149Z,6.10
2022-12-29T23:39:41.153Z,5.73
2022-12-29T23:42:12.532Z,6.17
2022-12-29T23:44:40.537Z,6.37
2022-12-29T23:47:08.589Z,5.63
2022-12-29T23:49:36.595Z,6.40
2022-12-29T23:52:04.541Z,6.30
2022-12-29T23:54:32.519Z,7.33
2022-12-29T23:57:00.642Z,6.87
2022-12-29T23:59:30.209Z,7.60
